createdAt,value
2022-10-23T00:01:45.513Z,98901.06
2022-10-23T00:04:22.247Z,98904.50
2022-10-23T00:06:50.711Z,98896.94
2022-10-23T00:09:24.313Z,98895.94
2022-10-23T00:11:53.290Z,98892.03
2022-10-23T00:14:24.894Z,98881.88
2022-10-23T00:16:52.841Z,98881.16
2022-10-23T00:19:20.330Z,98878.41
2022-10-23T00:21:47.810Z,98860.13
2022-10-23T00:24:15.354Z,98865.47
2022-10-23T00:26:43.537Z,98863.75
2022-10-23T00:29:11.693Z,98866.13
2022-10-23T00:31:39.462Z,98874.69
2022-10-23T00:34:08.528Z,98880.78
2022-10-23T00:36:36.804Z,98881.97
2022-10-23T00:39:05.503Z,98898.63
2022-10-23T00:41:33.285Z,98888.75
2022-10-23T00:44:18.912Z,98884.97
2022-10-23T00:46:46.374Z,98887.56
2022-10-23T00:49:15.719Z,98885.25
2022-10-23T00:51:53.314Z,98880.88
2022-10-23T00:54:28.004Z,98874.31
2022-10-23T00:57:01.792Z,98877.19
2022-10-23T00:59:31.627Z,98877.59
2022-10-23T01:02:00.317Z,98871.38
2022-10-23T01:04:29.963Z,98872.28
2022-10-23T01:07:33.847Z,98870.88
2022-10-23T01:11:10.853Z,98875.78
2022-10-23T01:14:15.998Z,98883.88
2022-10-23T01:17:13.200Z,98883.22
2022-10-23T01:20:23.363Z,98876.16
2022-10-23T01:23:47.294Z,98877.16
2022-10-23T01:26:40.819Z,98883.56
2022-10-23T01:29:32.999Z,98869.31
2022-10-23T01:32:24.276Z,98855.72
2022-10-23T01:35:09.202Z,98863.75
2022-10-23T01:37:55.485Z,98858.44
2022-10-23T01:40:54.905Z,98847.03
2022-10-23T01:43:38.672Z,98856.63
2022-10-23T01:46:14.673Z,98848.00
2022-10-23T01:48:51.520Z,98845.41
2022-10-23T01:51:23.253Z,98834.38
2022-10-23T01:53:56.435Z,98841.22
2022-10-23T01:56:32.275Z,98846.78
2022-10-23T01:59:09.846Z,98846.13
2022-10-23T02:01:47.167Z,98843.91
2022-10-23T02:04:25.644Z,98837.56
2022-10-23T02:06:53.234Z,98831.25
2022-10-23T02:09:20.699Z,98836.56
2022-10-23T02:12:07.004Z,98836.81
2022-10-23T02:15:03.006Z,98838.31
2022-10-23T02:17:59.492Z,98825.47
2022-10-23T02:20:41.035Z,98825.38
2022-10-23T02:23:33.308Z,98825.72
2022-10-23T02:26:27.661Z,98823.34
2022-10-23T02:29:11.247Z,98822.03
2022-10-23T02:31:42.769Z,98820.09
2022-10-23T02:34:10.526Z,98816.56
2022-10-23T02:36:37.996Z,98808.53
2022-10-23T02:39:06.060Z,98807.25
2022-10-23T02:41:53.933Z,98807.88
2022-10-23T02:44:45.620Z,98801.94
2022-10-23T02:47:57.097Z,98811.13
2022-10-23T02:50:57.027Z,98796.75
2022-10-23T02:53:43.553Z,98788.13
2022-10-23T02:56:38.621Z,98784.59
2022-10-23T02:59:16.584Z,98774.34
2022-10-23T03:01:55.469Z,98791.63
2022-10-23T03:04:27.701Z,98775.56
2022-10-23T03:06:56.577Z,98780.97
2022-10-23T03:09:27.287Z,98779.28
2022-10-23T03:11:54.518Z,98780.44
2022-10-23T03:14:21.712Z,98778.75
2022-10-23T03:16:50.770Z,98783.63
2022-10-23T03:19:18.106Z,98777.53
2022-10-23T03:21:45.238Z,98775.22
2022-10-23T03:24:13.033Z,98774.59
2022-10-23T03:26:43.587Z,98779.97
2022-10-23T03:29:11.007Z,98772.28
2022-10-23T03:31:44.435Z,98770.28
2022-10-23T03:34:11.874Z,98773.59
2022-10-23T03:36:41.622Z,98770.34
2022-10-23T03:39:11.071Z,98771.22
2022-10-23T03:41:38.978Z,98765.16
2022-10-23T03:44:06.328Z,98773.44
2022-10-23T03:46:33.560Z,98773.66
2022-10-23T03:49:00.872Z,98756.31
2022-10-23T03:51:28.174Z,98762.03
2022-10-23T03:53:55.621Z,98755.50
2022-10-23T03:56:23.394Z,98753.34
2022-10-23T03:58:50.749Z,98752.69
2022-10-23T04:01:18.066Z,98754.81
2022-10-23T04:03:46.450Z,98758.31
2022-10-23T04:06:16.207Z,98752.16
2022-10-23T04:08:45.678Z,98751.06
2022-10-23T04:11:16.068Z,98756.22
2022-10-23T04:13:46.574Z,98757.25
2022-10-23T04:16:13.756Z,98763.47
2022-10-23T04:18:42.308Z,98759.06
2022-10-23T04:21:12.154Z,98754.69
2022-10-23T04:23:46.447Z,98759.28
2022-10-23T04:26:17.482Z,98762.81
2022-10-23T04:28:45.086Z,98757.44
2022-10-23T04:31:12.629Z,98761.22
2022-10-23T04:33:41.964Z,98758.25
2022-10-23T04:36:10.166Z,98763.53
2022-10-23T04:38:37.695Z,98767.16
2022-10-23T04:41:07.149Z,98768.44
2022-10-23T04:43:34.879Z,98768.56
2022-10-23T04:46:04.012Z,98773.38
2022-10-23T04:48:31.840Z,98767.88
2022-10-23T04:51:22.235Z,98760.34
2022-10-23T04:54:05.584Z,98760.78
2022-10-23T04:56:45.684Z,98759.59
2022-10-23T04:59:16.744Z,98764.09
2022-10-23T05:01:44.943Z,98764.56
2022-10-23T05:04:14.377Z,98764.00
2022-10-23T05:07:01.993Z,98761.78
2022-10-23T05:10:08.652Z,98758.22
2022-10-23T05:12:45.590Z,98752.84
2022-10-23T05:15:12.775Z,98752.72
2022-10-23T05:17:47.189Z,98751.00
2022-10-23T05:20:22.413Z,98752.91
2022-10-23T05:22:53.205Z,98747.63
2022-10-23T05:25:24.581Z,98751.25
2022-10-23T05:28:00.452Z,98745.69
2022-10-23T05:30:27.979Z,98741.47
2022-10-23T05:32:55.498Z,98752.63
2022-10-23T05:35:25.936Z,98743.28
2022-10-23T05:37:56.146Z,98742.63
2022-10-23T05:40:26.582Z,98740.38
2022-10-23T05:42:59.759Z,98740.72
2022-10-23T05:45:55.912Z,98741.00
2022-10-23T05:51:49.200Z,98736.91
2022-10-23T05:54:28.987Z,98738.94
2022-10-23T05:57:14.797Z,98731.13
2022-10-23T05:59:45.505Z,98737.34
2022-10-23T06:02:33.630Z,98732.75
2022-10-23T06:05:11.171Z,98730.28
2022-10-23T06:07:59.545Z,98725.53
2022-10-23T06:10:28.156Z,98729.00
2022-10-23T06:12:58.033Z,98732.03
2022-10-23T06:15:26.804Z,98723.09
2022-10-23T06:18:05.069Z,98724.88
2022-10-23T06:20:40.192Z,98714.72
2022-10-23T06:23:16.872Z,98716.84
2022-10-23T06:26:05.381Z,98717.34
2022-10-23T06:28:41.245Z,98724.94
2022-10-23T06:31:13.302Z,98723.28
2022-10-23T06:33:42.079Z,98724.56
2022-10-23T06:36:10.842Z,98725.66
2022-10-23T06:38:40.991Z,98726.16
2022-10-23T06:41:20.280Z,98723.09
2022-10-23T06:43:53.325Z,98717.22
2022-10-23T06:46:40.820Z,98718.75
2022-10-23T06:49:33.727Z,98718.75
2022-10-23T06:52:02.462Z,98716.91
2022-10-23T06:54:29.632Z,98718.97
2022-10-23T06:57:19.598Z,98716.94
2022-10-23T06:59:47.560Z,98723.28
2022-10-23T07:02:17.391Z,98718.09
2022-10-23T07:04:45.178Z,98723.88
2022-10-23T07:07:18.162Z,98717.00
2022-10-23T07:09:48.197Z,98717.00
2022-10-23T07:12:39.408Z,98715.34
2022-10-23T07:15:32.285Z,98726.28
2022-10-23T07:17:59.662Z,98717.59
2022-10-23T07:20:34.084Z,98723.75
2022-10-23T07:23:01.345Z,98721.50
2022-10-23T07:25:34.442Z,98724.31
2022-10-23T07:28:01.832Z,98718.41
2022-10-23T07:30:31.827Z,98721.91
2022-10-23T07:33:01.745Z,98718.91
2022-10-23T07:35:34.278Z,98714.06
2022-10-23T07:38:07.739Z,98725.34
2022-10-23T07:40:38.564Z,98721.84
2022-10-23T07:43:08.035Z,98720.00
2022-10-23T07:45:35.346Z,98724.47
2022-10-23T07:48:09.496Z,98737.25
2022-10-23T07:51:14.893Z,98738.53
2022-10-23T07:53:45.660Z,98740.69
2022-10-23T07:56:45.204Z,98737.47
2022-10-23T07:59:24.546Z,98738.75
2022-10-23T08:01:56.533Z,98734.38
2022-10-23T08:07:07.014Z,98717.66
2022-10-23T08:09:40.309Z,98713.78
2022-10-23T08:12:09.925Z,98715.28
2022-10-23T08:14:37.255Z,98717.78
2022-10-23T08:17:05.249Z,98711.41
2022-10-23T08:20:02.354Z,98710.66
2022-10-23T08:22:37.127Z,98702.22
2022-10-23T08:25:05.559Z,98700.53
2022-10-23T08:27:32.885Z,98698.66
2022-10-23T08:30:00.165Z,98700.94
2022-10-23T08:32:32.013Z,98706.00
2022-10-23T08:35:00.835Z,98699.03
2022-10-23T08:37:34.298Z,98692.06
2022-10-23T08:40:01.886Z,98694.59
2022-10-23T08:43:16.171Z,98695.47
2022-10-23T08:46:09.390Z,98685.34
2022-10-23T08:49:34.781Z,98691.75
2022-10-23T08:52:46.844Z,98676.75
2022-10-23T08:55:35.557Z,98681.81
2022-10-23T08:58:29.629Z,98691.53
2022-10-23T09:00:56.877Z,98688.44
2022-10-23T09:03:24.248Z,98682.47
2022-10-23T09:06:09.719Z,98694.22
2022-10-23T09:09:14.519Z,98678.28
2022-10-23T09:12:12.816Z,98674.31
2022-10-23T09:15:04.811Z,98673.72
2022-10-23T09:17:40.967Z,98674.06
2022-10-23T09:20:28.243Z,98678.72
2022-10-23T09:23:23.307Z,98677.72
2022-10-23T09:25:56.920Z,98679.63
2022-10-23T09:28:47.328Z,98688.94
2022-10-23T09:31:14.934Z,98684.56
2022-10-23T09:33:56.205Z,98675.75
2022-10-23T09:36:27.502Z,98680.16
2022-10-23T09:38:59.128Z,98677.53
2022-10-23T09:41:38.578Z,98667.59
2022-10-23T09:44:08.791Z,98651.28
2022-10-23T09:49:30.763Z,98646.03
2022-10-23T09:52:41.520Z,98638.94
2022-10-23T09:55:36.995Z,98636.78
2022-10-23T09:58:05.412Z,98626.72
2022-10-23T10:00:33.409Z,98623.25
2022-10-23T10:03:07.179Z,98635.53
2022-10-23T10:05:43.914Z,98638.84
2022-10-23T10:08:47.730Z,98641.00
2022-10-23T10:11:52.912Z,98634.44
2022-10-23T10:14:54.443Z,98643.97
2022-10-23T10:17:43.343Z,98632.84
2022-10-23T10:20:43.017Z,98633.50
2022-10-23T10:23:55.777Z,98639.47
2022-10-23T10:27:18.552Z,98625.13
2022-10-23T10:30:15.871Z,98625.03
2022-10-23T10:33:18.389Z,98612.53
2022-10-23T10:36:05.313Z,98604.97
2022-10-23T10:38:51.938Z,98612.84
2022-10-23T10:42:00.965Z,98617.72
2022-10-23T10:45:17.129Z,98586.59
2022-10-23T10:48:23.769Z,98583.66
2022-10-23T10:51:51.861Z,98571.56
2022-10-23T10:55:09.734Z,98569.47
2022-10-23T10:57:45.587Z,98571.19
2022-10-23T11:00:19.813Z,98585.97
2022-10-23T11:03:24.810Z,98588.09
2022-10-23T11:06:01.141Z,98577.31
2022-10-23T11:08:50.137Z,98569.84
2022-10-23T11:11:40.876Z,98572.78
2022-10-23T11:14:33.722Z,98570.56
2022-10-23T11:17:16.965Z,98557.16
2022-10-23T11:20:10.381Z,98548.19
2022-10-23T11:22:47.473Z,98548.00
2022-10-23T11:25:51.485Z,98538.72
2022-10-23T11:29:11.010Z,98524.28
2022-10-23T11:32:35.038Z,98520.47
2022-10-23T11:35:26.574Z,98513.88
2022-10-23T11:38:17.476Z,98501.56
2022-10-23T11:40:55.909Z,98501.75
2022-10-23T11:43:27.793Z,98495.09
2022-10-23T11:45:55.421Z,98487.72
2022-10-23T11:48:41.697Z,98488.09
2022-10-23T11:51:32.661Z,98483.47
2022-10-23T11:54:12.296Z,98482.72
2022-10-23T11:57:15.695Z,98483.50
2022-10-23T11:59:48.602Z,98491.06
2022-10-23T12:02:38.365Z,98470.47
2022-10-23T12:05:34.835Z,98469.13
2022-10-23T12:08:24.456Z,98473.38
2022-10-23T12:10:52.916Z,98460.38
2022-10-23T12:13:38.510Z,98459.63
2022-10-23T12:16:10.061Z,98458.63
2022-10-23T12:18:53.612Z,98458.66
2022-10-23T12:21:28.264Z,98451.66
2022-10-23T12:24:22.681Z,98457.50
2022-10-23T12:27:23.226Z,98453.28
2022-10-23T12:30:22.703Z,98451.34
2022-10-23T12:33:26.479Z,98446.84
2022-10-23T12:36:44.596Z,98445.09
2022-10-23T12:39:39.064Z,98436.56
2022-10-23T12:42:30.571Z,98434.91
2022-10-23T12:45:30.390Z,98423.69
2022-10-23T12:47:58.075Z,98418.22
2022-10-23T12:50:30.715Z,98414.34
2022-10-23T12:53:07.659Z,98424.66
2022-10-23T12:56:07.113Z,98412.41
2022-10-23T12:58:37.432Z,98411.19
2022-10-23T13:01:07.774Z,98403.88
2022-10-23T13:03:36.169Z,98403.88
2022-10-23T13:06:04.838Z,98394.56
2022-10-23T13:08:46.097Z,98389.75
2022-10-23T13:11:28.409Z,98383.19
2022-10-23T13:13:58.852Z,98372.19
2022-10-23T13:16:27.122Z,98360.03
2022-10-23T13:18:54.386Z,98373.56
2022-10-23T13:21:25.648Z,98375.47
2022-10-23T13:23:54.100Z,98378.81
2022-10-23T13:26:44.894Z,98379.44
2022-10-23T13:29:22.227Z,98376.66
2022-10-23T13:31:51.024Z,98375.00
2022-10-23T13:34:30.385Z,98378.38
2022-10-23T13:37:28.552Z,98367.69
2022-10-23T13:40:09.636Z,98370.44
2022-10-23T13:42:39.855Z,98368.19
2022-10-23T13:45:22.974Z,98364.84
2022-10-23T13:47:51.009Z,98366.56
2022-10-23T13:50:20.474Z,98359.38
2022-10-23T13:52:48.946Z,98361.22
2022-10-23T13:55:25.148Z,98361.25
2022-10-23T13:57:53.186Z,98355.31
2022-10-23T14:00:21.209Z,98360.66
2022-10-23T14:02:48.723Z,98357.47
2022-10-23T14:05:17.368Z,98351.50
2022-10-23T14:07:45.283Z,98352.38
2022-10-23T14:10:13.253Z,98357.72
2022-10-23T14:12:44.257Z,98349.66
2022-10-23T14:15:12.860Z,98357.41
2022-10-23T14:17:40.188Z,98353.34
2022-10-23T14:20:09.798Z,98344.50
2022-10-23T14:22:37.293Z,98338.59
2022-10-23T14:25:08.848Z,98346.91
2022-10-23T14:27:36.488Z,98333.88
2022-10-23T14:30:05.950Z,98325.66
2022-10-23T14:32:33.187Z,98330.47
2022-10-23T14:35:03.774Z,98332.63
2022-10-23T14:37:35.213Z,98332.53
2022-10-23T14:40:02.784Z,98333.19
2022-10-23T14:42:34.318Z,98337.31
2022-10-23T14:45:05.196Z,98345.56
2022-10-23T14:47:33.080Z,98335.63
2022-10-23T14:50:01.188Z,98337.31
2022-10-23T14:52:28.596Z,98325.72
2022-10-23T14:55:01.926Z,98328.66
2022-10-23T14:57:56.689Z,98324.94
2022-10-23T15:00:24.334Z,98312.97
2022-10-23T15:02:51.699Z,98320.31
2022-10-23T15:05:19.205Z,98321.41
2022-10-23T15:07:46.404Z,98314.94
2022-10-23T15:10:13.612Z,98309.69
2022-10-23T15:12:41.135Z,98309.44
2022-10-23T15:15:09.681Z,98301.59
2022-10-23T15:17:39.066Z,98303.06
2022-10-23T15:20:07.943Z,98301.59
2022-10-23T15:22:35.114Z,98310.50
2022-10-23T15:25:02.330Z,98302.00
2022-10-23T15:27:29.628Z,98314.13
2022-10-23T15:29:56.774Z,98293.03
2022-10-23T15:32:24.092Z,98295.44
2022-10-23T15:34:52.378Z,98300.97
2022-10-23T15:37:19.639Z,98295.25
2022-10-23T15:39:46.805Z,98286.72
2022-10-23T15:42:19.681Z,98273.63
2022-10-23T15:44:53.916Z,98270.13
2022-10-23T15:47:23.366Z,98268.97
2022-10-23T15:49:50.497Z,98267.25
2022-10-23T15:52:17.673Z,98272.22
2022-10-23T15:54:44.787Z,98258.06
2022-10-23T15:57:11.979Z,98267.13
2022-10-23T15:59:39.222Z,98256.97
2022-10-23T16:02:06.578Z,98258.81
2022-10-23T16:04:35.278Z,98255.09
2022-10-23T16:07:02.414Z,98267.47
2022-10-23T16:09:29.850Z,98245.88
2022-10-23T16:11:57.016Z,98255.97
2022-10-23T16:14:24.659Z,98270.25
2022-10-23T16:16:52.273Z,98269.69
2022-10-23T16:19:19.657Z,98282.34
2022-10-23T16:21:46.895Z,98284.78
2022-10-23T16:24:14.283Z,98285.81
2022-10-23T16:26:41.645Z,98289.41
2022-10-23T16:29:09.958Z,98302.91
2022-10-23T16:31:37.940Z,98282.00
2022-10-23T16:34:07.792Z,98286.81
2022-10-23T16:36:39.000Z,98291.78
2022-10-23T16:39:31.424Z,98276.84
2022-10-23T16:42:28.337Z,98277.34
2022-10-23T16:45:14.654Z,98282.97
2022-10-23T16:47:42.035Z,98264.19
2022-10-23T16:50:09.515Z,98269.03
2022-10-23T16:52:36.722Z,98275.66
2022-10-23T16:55:10.812Z,98260.38
2022-10-23T16:57:38.526Z,98259.06
2022-10-23T17:00:07.541Z,98263.53
2022-10-23T17:02:35.229Z,98261.41
2022-10-23T17:05:02.706Z,98257.72
2022-10-23T17:07:30.678Z,98262.72
2022-10-23T17:09:57.830Z,98264.53
2022-10-23T17:12:25.051Z,98271.34
2022-10-23T17:14:52.507Z,98284.47
2022-10-23T17:17:19.960Z,98294.75
2022-10-23T17:19:47.240Z,98284.31
2022-10-23T17:22:15.449Z,98284.31
2022-10-23T17:24:46.294Z,98294.25
2022-10-23T17:27:16.268Z,98301.56
2022-10-23T17:29:43.601Z,98302.25
2022-10-23T17:32:11.124Z,98287.13
2022-10-23T17:34:38.383Z,98289.91
2022-10-23T17:37:05.633Z,98301.56
2022-10-23T17:39:33.161Z,98325.97
2022-10-23T17:42:00.516Z,98348.06
2022-10-23T17:44:29.078Z,98327.97
2022-10-23T17:46:59.591Z,98338.09
2022-10-23T17:49:26.749Z,98342.25
2022-10-23T17:51:57.560Z,98343.63
2022-10-23T17:54:27.166Z,98326.34
2022-10-23T17:56:54.927Z,98341.41
2022-10-23T17:59:22.366Z,98345.72
2022-10-23T18:01:50.185Z,98335.94
2022-10-23T18:04:20.618Z,98332.13
2022-10-23T18:06:53.716Z,98330.72
2022-10-23T18:09:23.411Z,98333.78
2022-10-23T18:11:52.671Z,98341.03
2022-10-23T18:14:26.109Z,98331.47
2022-10-23T18:16:55.952Z,98318.00
2022-10-23T18:19:23.117Z,98345.00
2022-10-23T18:21:50.475Z,98358.72
2022-10-23T18:24:19.035Z,98378.31
2022-10-23T18:26:50.105Z,98371.66
2022-10-23T18:29:17.944Z,98374.38
2022-10-23T18:31:48.069Z,98384.66
2022-10-23T18:34:23.400Z,98397.78
2022-10-23T18:36:55.708Z,98396.84
2022-10-23T18:39:25.555Z,98398.38
2022-10-23T18:41:57.961Z,98414.03
2022-10-23T18:44:29.039Z,98438.66
2022-10-23T18:46:59.060Z,98438.56
2022-10-23T18:49:27.261Z,98447.88
2022-10-23T18:51:54.843Z,98449.97
2022-10-23T18:54:22.518Z,98440.66
2022-10-23T18:56:50.392Z,98431.31
2022-10-23T18:59:20.728Z,98439.38
2022-10-23T19:01:49.206Z,98419.69
2022-10-23T19:04:18.343Z,98432.22
2022-10-23T19:06:48.583Z,98456.47
2022-10-23T19:09:16.858Z,98449.94
2022-10-23T19:11:45.636Z,98454.25
2022-10-23T19:14:13.259Z,98452.84
2022-10-23T19:16:58.591Z,98450.09
2022-10-23T19:19:36.588Z,98448.72
2022-10-23T19:22:04.961Z,98455.88
2022-10-23T19:24:51.116Z,98460.13
2022-10-23T19:27:19.796Z,98454.84
2022-10-23T19:29:51.855Z,98437.44
2022-10-23T19:32:19.068Z,98466.91
2022-10-23T19:34:46.393Z,98479.59
2022-10-23T19:39:47.186Z,98479.34
2022-10-23T19:42:14.538Z,98461.78
2022-10-23T19:44:41.729Z,98464.94
2022-10-23T19:47:08.946Z,98467.44
2022-10-23T19:49:36.061Z,98457.38
2022-10-23T19:52:03.358Z,98461.38
2022-10-23T19:54:31.634Z,98464.19
2022-10-23T19:56:59.109Z,98466.84
2022-10-23T19:59:26.239Z,98462.66
2022-10-23T20:01:53.540Z,98455.31
2022-10-23T20:04:20.759Z,98452.69
2022-10-23T20:06:48.012Z,98440.75
2022-10-23T20:09:15.943Z,98454.72
2022-10-23T20:11:45.110Z,98466.72
2022-10-23T20:14:13.852Z,98458.34
2022-10-23T20:16:45.258Z,98461.44
2022-10-23T20:21:50.055Z,98459.22
2022-10-23T20:24:20.125Z,98461.56
2022-10-23T20:26:53.395Z,98467.25
2022-10-23T20:29:22.623Z,98450.38
2022-10-23T20:31:49.835Z,98454.19
2022-10-23T20:34:19.028Z,98463.34
2022-10-23T20:36:53.704Z,98461.66
2022-10-23T20:39:26.457Z,98458.41
2022-10-23T20:41:57.450Z,98458.44
2022-10-23T20:44:25.060Z,98465.78
2022-10-23T20:46:52.629Z,98462.13
2022-10-23T20:49:21.267Z,98460.97
2022-10-23T20:51:55.700Z,98468.91
2022-10-23T20:54:28.800Z,98475.25
2022-10-23T20:56:59.682Z,98478.72
2022-10-23T20:59:26.835Z,98495.34
2022-10-23T21:01:56.187Z,98488.50
2022-10-23T21:04:29.005Z,98482.97
2022-10-23T21:07:09.860Z,98483.41
2022-10-23T21:09:38.545Z,98483.25
2022-10-23T21:12:06.620Z,98492.78
2022-10-23T21:14:35.355Z,98491.09
2022-10-23T21:17:03.900Z,98501.44
2022-10-23T21:19:31.310Z,98486.41
2022-10-23T21:21:59.680Z,98494.59
2022-10-23T21:24:26.898Z,98499.56
2022-10-23T21:26:54.015Z,98490.91
2022-10-23T21:29:21.194Z,98514.88
2022-10-23T21:31:58.197Z,98512.16
2022-10-23T21:34:27.404Z,98512.53
2022-10-23T21:39:44.261Z,98516.47
2022-10-23T21:42:14.465Z,98515.53
2022-10-23T21:44:42.087Z,98511.41
2022-10-23T21:47:09.608Z,98500.94
2022-10-23T21:49:37.036Z,98499.75
2022-10-23T21:52:04.693Z,98492.41
2022-10-23T21:54:31.942Z,98504.25
2022-10-23T21:56:59.314Z,98496.28
2022-10-23T21:59:30.153Z,98494.44
2022-10-23T22:01:59.407Z,98500.75
2022-10-23T22:04:26.764Z,98483.75
2022-10-23T22:06:53.871Z,98479.59
2022-10-23T22:09:22.863Z,98474.28
2022-10-23T22:11:53.152Z,98478.13
2022-10-23T22:14:21.363Z,98465.22
2022-10-23T22:16:49.718Z,98465.78
2022-10-23T22:19:19.316Z,98461.69
2022-10-23T22:21:52.751Z,98467.16
2022-10-23T22:24:20.505Z,98471.53
2022-10-23T22:26:56.916Z,98473.06
2022-10-23T22:29:29.421Z,98464.94
2022-10-23T22:31:58.217Z,98450.69
2022-10-23T22:37:17.149Z,98467.25
2022-10-23T22:39:44.740Z,98455.34
2022-10-23T22:42:12.343Z,98459.75
2022-10-23T22:44:39.547Z,98454.31
2022-10-23T22:47:07.205Z,98459.38
2022-10-23T22:49:34.428Z,98457.34
2022-10-23T22:52:01.624Z,98465.59
2022-10-23T22:54:31.200Z,98453.19
2022-10-23T22:56:58.791Z,98456.31
2022-10-23T22:59:26.005Z,98460.16
2022-10-23T23:01:53.137Z,98469.88
2022-10-23T23:07:12.211Z,98462.56
2022-10-23T23:09:44.717Z,98467.13
2022-10-23T23:12:15.014Z,98472.00
2022-10-23T23:14:43.414Z,98473.75
2022-10-23T23:17:13.129Z,98478.25
2022-10-23T23:19:40.593Z,98481.56
2022-10-23T23:22:08.436Z,98480.06
2022-10-23T23:24:35.986Z,98481.72
2022-10-23T23:27:03.268Z,98481.91
2022-10-23T23:29:30.426Z,98489.22
2022-10-23T23:31:58.072Z,98483.41
2022-10-23T23:34:25.347Z,98492.88
2022-10-23T23:36:54.772Z,98488.53
2022-10-23T23:39:47.240Z,98486.06
2022-10-23T23:42:14.807Z,98476.22
2022-10-23T23:44:50.318Z,98471.56
2022-10-23T23:47:30.094Z,98467.41
2022-10-23T23:49:57.197Z,98467.09
2022-10-23T23:52:24.359Z,98465.22
2022-10-23T23:54:51.675Z,98469.66
2022-10-23T23:57:19.070Z,98473.13
2022-10-23T23:59:46.825Z,98472.06
